sensor_id;sensor_type;location;lat;lon;timestamp;pressure;altitude;pressure_sealevel;temperature;humidity
3150;BME280;32503;47.748;8.960;2023-01-30T00:01:41;97677.50;;;0.99;60.84
3150;BME280;32503;47.748;8.960;2023-01-30T00:04:09;97675.13;;;0.97;60.97
3150;BME280;32503;47.748;8.960;2023-01-30T00:06:38;97675.13;;;0.97;61.09
3150;BME280;32503;47.748;8.960;2023-01-30T00:09:05;97660.72;;;0.98;60.74
3150;BME280;32503;47.748;8.960;2023-01-30T00:11:32;97665.00;;;0.94;61.04
3150;BME280;32503;47.748;8.960;2023-01-30T00:13:59;97662.88;;;0.91;61.10
3150;BME280;32503;47.748;8.960;2023-01-30T00:16:26;97660.22;;;0.91;61.02
3150;BME280;32503;47.748;8.960;2023-01-30T00:18:55;97656.00;;;0.85;61.27
3150;BME280;32503;47.748;8.960;2023-01-30T00:21:22;97642.19;;;0.72;61.64
3150;BME280;32503;47.748;8.960;2023-01-30T00:23:49;97651.47;;;0.80;61.43
3150;BME280;32503;47.748;8.960;2023-01-30T00:26:16;97652.25;;;0.81;61.52
3150;BME280;32503;47.748;8.960;2023-01-30T00:28:43;97640.56;;;0.82;61.15
3150;BME280;32503;47.748;8.960;2023-01-30T00:31:11;97632.88;;;0.70;61.46
3150;BME280;32503;47.748;8.960;2023-01-30T00:33:38;97650.13;;;0.83;61.49
3150;BME280;32503;47.748;8.960;2023-01-30T00:36:08;97634.75;;;0.69;61.59
3150;BME280;32503;47.748;8.960;2023-01-30T00:38:35;97637.38;;;0.80;61.76
3150;BME280;32503;47.748;8.960;2023-01-30T00:41:03;97638.16;;;0.80;61.73
3150;BME280;32503;47.748;8.960;2023-01-30T00:43:30;97630.19;;;0.75;61.40
3150;BME280;32503;47.748;8.960;2023-01-30T00:46:21;97620.34;;;0.75;61.61
3150;BME280;32503;47.748;8.960;2023-01-30T00:49:07;97610.25;;;0.72;61.59
3150;BME280;32503;47.748;8.960;2023-01-30T00:51:36;97609.97;;;0.69;61.51
3150;BME280;32503;47.748;8.960;2023-01-30T00:54:03;97599.06;;;0.65;61.61
3150;BME280;32503;47.748;8.960;2023-01-30T00:56:30;97606.00;;;0.66;61.96
3150;BME280;32503;47.748;8.960;2023-01-30T00:58:57;97601.78;;;0.60;61.80
3150;BME280;32503;47.748;8.960;2023-01-30T01:01:24;97608.41;;;0.63;61.93
3150;BME280;32503;47.748;8.960;2023-01-30T01:03:51;97576.84;;;0.35;61.99
3150;BME280;32503;47.748;8.960;2023-01-30T01:06:18;97616.66;;;0.66;61.76
3150;BME280;32503;47.748;8.960;2023-01-30T01:08:46;97612.69;;;0.64;62.01
3150;BME280;32503;47.748;8.960;2023-01-30T01:11:14;97608.69;;;0.61;61.91
3150;BME280;32503;47.748;8.960;2023-01-30T01:13:50;97597.00;;;0.57;62.06
3150;BME280;32503;47.748;8.960;2023-01-30T01:16:18;97589.03;;;0.52;62.05
3150;BME280;32503;47.748;8.960;2023-01-30T01:18:45;97587.97;;;0.48;62.33
3150;BME280;32503;47.748;8.960;2023-01-30T01:21:12;97593.81;;;0.50;62.34
3150;BME280;32503;47.748;8.960;2023-01-30T01:23:39;97591.41;;;0.53;62.33
3150;BME280;32503;47.748;8.960;2023-01-30T01:26:08;97597.25;;;0.55;61.99
3150;BME280;32503;47.748;8.960;2023-01-30T01:28:35;97581.56;;;0.54;62.18
3150;BME280;32503;47.748;8.960;2023-01-30T01:31:08;97530.06;;;0.14;62.08
3150;BME280;32503;47.748;8.960;2023-01-30T01:33:35;97546.25;;;0.33;62.12
3150;BME280;32503;47.748;8.960;2023-01-30T01:36:03;97572.25;;;0.51;62.16
3150;BME280;32503;47.748;8.960;2023-01-30T01:38:31;97557.13;;;0.42;62.40
3150;BME280;32503;47.748;8.960;2023-01-30T01:40:58;97581.56;;;0.49;62.18
3150;BME280;32503;47.748;8.960;2023-01-30T01:43:31;97575.72;;;0.47;62.65
3150;BME280;32503;47.748;8.960;2023-01-30T01:46:03;97577.88;;;0.45;62.71
3150;BME280;32503;47.748;8.960;2023-01-30T01:48:35;97535.34;;;0.24;62.62
3150;BME280;32503;47.748;8.960;2023-01-30T01:51:09;97569.09;;;0.44;62.30
3150;BME280;32503;47.748;8.960;2023-01-30T01:53:42;97567.50;;;0.38;63.04
3150;BME280;32503;47.748;8.960;2023-01-30T01:56:13;97565.63;;;0.44;62.95
3150;BME280;32503;47.748;8.960;2023-01-30T01:58:47;97567.75;;;0.42;62.83
3150;BME280;32503;47.748;8.960;2023-01-30T02:01:14;97579.19;;;0.47;63.13
3150;BME280;32503;47.748;8.960;2023-01-30T02:03:46;97545.44;;;0.32;63.05
3150;BME280;32503;47.748;8.960;2023-01-30T02:06:15;97578.38;;;0.52;63.23
3150;BME280;32503;47.748;8.960;2023-01-30T02:08:46;97574.63;;;0.53;63.53
3150;BME280;32503;47.748;8.960;2023-01-30T02:11:21;97543.84;;;0.36;63.45
3150;BME280;32503;47.748;8.960;2023-01-30T02:13:52;97560.81;;;0.51;63.62
3150;BME280;32503;47.748;8.960;2023-01-30T02:16:19;97563.44;;;0.56;63.74
3150;BME280;32503;47.748;8.960;2023-01-30T02:18:47;97562.13;;;0.64;63.64
3150;BME280;32503;47.748;8.960;2023-01-30T02:27:53;97579.91;;;0.68;63.74
3150;BME280;32503;47.748;8.960;2023-01-30T02:30:59;97573.78;;;0.73;63.15
3150;BME280;32503;47.748;8.960;2023-01-30T02:33:38;97550.66;;;0.58;63.68
3150;BME280;32503;47.748;8.960;2023-01-30T02:36:15;97593.72;;;0.75;63.54
3150;BME280;32503;47.748;8.960;2023-01-30T02:38:52;97592.69;;;0.71;63.64
3150;BME280;32503;47.748;8.960;2023-01-30T02:41:32;97611.03;;;0.78;63.25
3150;BME280;32503;47.748;8.960;2023-01-30T02:44:04;97593.22;;;0.68;62.85
3150;BME280;32503;47.748;8.960;2023-01-30T02:46:42;97624.59;;;0.82;62.96
3150;BME280;32503;47.748;8.960;2023-01-30T02:49:16;97594.81;;;0.69;62.62
3150;BME280;32503;47.748;8.960;2023-01-30T02:51:49;97580.75;;;0.64;62.80
3150;BME280;32503;47.748;8.960;2023-01-30T02:54:16;97616.38;;;0.73;62.65
3150;BME280;32503;47.748;8.960;2023-01-30T02:56:46;97597.28;;;0.50;62.92
3150;BME280;32503;47.748;8.960;2023-01-30T02:59:20;97625.72;;;0.60;63.00
3150;BME280;32503;47.748;8.960;2023-01-30T03:02:14;97635.28;;;0.61;63.39
3150;BME280;32503;47.748;8.960;2023-01-30T03:05:13;97643.28;;;0.61;63.49
3150;BME280;32503;47.748;8.960;2023-01-30T03:07:54;97661.09;;;0.61;63.75
3150;BME280;32503;47.748;8.960;2023-01-30T03:10:32;97670.16;;;0.54;63.79
3150;BME280;32503;47.748;8.960;2023-01-30T03:13:09;97652.34;;;0.50;63.86
3150;BME280;32503;47.748;8.960;2023-01-30T03:15:42;97633.22;;;0.37;64.05
3150;BME280;32503;47.748;8.960;2023-01-30T03:18:11;97673.06;;;0.53;63.99
3150;BME280;32503;47.748;8.960;2023-01-30T03:20:39;97662.16;;;0.60;63.77
3150;BME280;32503;47.748;8.960;2023-01-30T03:23:07;97611.94;;;0.43;63.95
3150;BME280;32503;47.748;8.960;2023-01-30T03:25:35;97615.34;;;0.64;63.78
3150;BME280;32503;47.748;8.960;2023-01-30T03:28:04;97627.03;;;0.63;63.71
3150;BME280;32503;47.748;8.960;2023-01-30T03:30:32;97616.13;;;0.64;63.87
3150;BME280;32503;47.748;8.960;2023-01-30T03:32:59;97622.50;;;0.68;63.91
3150;BME280;32503;47.748;8.960;2023-01-30T03:35:28;97625.41;;;0.72;63.59
3150;BME280;32503;47.748;8.960;2023-01-30T03:37:57;97613.69;;;0.78;63.29
3150;BME280;32503;47.748;8.960;2023-01-30T03:40:24;97620.84;;;0.83;63.27
3150;BME280;32503;47.748;8.960;2023-01-30T03:42:52;97636.81;;;0.83;63.54
3150;BME280;32503;47.748;8.960;2023-01-30T03:45:19;97639.50;;;0.78;63.77
3150;BME280;32503;47.748;8.960;2023-01-30T03:47:46;97613.47;;;0.59;63.67
3150;BME280;32503;47.748;8.960;2023-01-30T03:50:13;97631.81;;;0.66;63.80
3150;BME280;32503;47.748;8.960;2023-01-30T03:52:41;97646.41;;;0.84;63.74
3150;BME280;32503;47.748;8.960;2023-01-30T03:55:09;97634.97;;;0.83;63.77
3150;BME280;32503;47.748;8.960;2023-01-30T03:57:37;97609.16;;;0.79;64.04
3150;BME280;32503;47.748;8.960;2023-01-30T04:00:05;97617.41;;;0.77;64.36
3150;BME280;32503;47.748;8.960;2023-01-30T04:02:32;97645.63;;;0.78;64.38
3150;BME280;32503;47.748;8.960;2023-01-30T04:04:59;97659.75;;;0.73;64.62
3150;BME280;32503;47.748;8.960;2023-01-30T04:07:27;97657.06;;;0.79;64.88
3150;BME280;32503;47.748;8.960;2023-01-30T04:09:56;97664.78;;;0.85;64.38
3150;BME280;32503;47.748;8.960;2023-01-30T04:12:23;97652.22;;;0.91;64.31
3150;BME280;32503;47.748;8.960;2023-01-30T04:14:50;97665.81;;;0.94;64.01
3150;BME280;32503;47.748;8.960;2023-01-30T04:17:17;97667.66;;;0.99;63.47
3150;BME280;32503;47.748;8.960;2023-01-30T04:19:44;97665.00;;;0.99;63.87
3150;BME280;32503;47.748;8.960;2023-01-30T04:22:11;97644.47;;;1.05;63.79
3150;BME280;32503;47.748;8.960;2023-01-30T04:24:38;97633.03;;;1.04;63.55
3150;BME280;32503;47.748;8.960;2023-01-30T04:27:07;97617.09;;;0.94;63.64
3150;BME280;32503;47.748;8.960;2023-01-30T04:29:34;97610.91;;;1.04;63.40
3150;BME280;32503;47.748;8.960;2023-01-30T04:32:02;97603.72;;;1.04;63.37
3150;BME280;32503;47.748;8.960;2023-01-30T04:34:29;97594.66;;;1.05;63.20
3150;BME280;32503;47.748;8.960;2023-01-30T04:36:56;97569.72;;;0.86;63.48
3150;BME280;32503;47.748;8.960;2023-01-30T04:39:23;97570.25;;;0.88;63.61
3150;BME280;32503;47.748;8.960;2023-01-30T04:41:50;97558.03;;;0.87;63.34
3150;BME280;32503;47.748;8.960;2023-01-30T04:44:18;97563.34;;;0.87;63.73
3150;BME280;32503;47.748;8.960;2023-01-30T04:46:45;97548.81;;;0.64;64.13
3150;BME280;32503;47.748;8.960;2023-01-30T04:49:12;97555.47;;;0.56;63.89
3150;BME280;32503;47.748;8.960;2023-01-30T04:51:39;97552.25;;;0.69;64.54
3150;BME280;32503;47.748;8.960;2023-01-30T04:54:06;97573.00;;;0.72;63.93
3150;BME280;32503;47.748;8.960;2023-01-30T04:56:33;97605.22;;;0.66;64.57
3150;BME280;32503;47.748;8.960;2023-01-30T04:59:01;97592.16;;;0.69;64.09
3150;BME280;32503;47.748;8.960;2023-01-30T05:01:33;97590.00;;;0.71;64.03
3150;BME280;32503;47.748;8.960;2023-01-30T05:04:01;97587.88;;;0.68;64.02
3150;BME280;32503;47.748;8.960;2023-01-30T05:06:30;97583.91;;;0.66;64.03
3150;BME280;32503;47.748;8.960;2023-01-30T05:08:58;97570.66;;;0.50;64.30
3150;BME280;32503;47.748;8.960;2023-01-30T05:11:27;97590.06;;;0.61;63.99
3150;BME280;32503;47.748;8.960;2023-01-30T05:13:54;97585.56;;;0.56;63.83
3150;BME280;32503;47.748;8.960;2023-01-30T05:16:22;97599.03;;;0.75;63.72
3150;BME280;32503;47.748;8.960;2023-01-30T05:18:51;97592.94;;;0.75;63.55
3150;BME280;32503;47.748;8.960;2023-01-30T05:21:21;97582.53;;;0.79;63.15
3150;BME280;32503;47.748;8.960;2023-01-30T05:23:50;97587.03;;;0.88;63.34
3150;BME280;32503;47.748;8.960;2023-01-30T05:26:17;97557.53;;;0.80;63.07
3150;BME280;32503;47.748;8.960;2023-01-30T05:28:50;97567.59;;;0.83;63.34
3150;BME280;32503;47.748;8.960;2023-01-30T05:31:18;97576.09;;;0.90;63.14
3150;BME280;32503;47.748;8.960;2023-01-30T05:33:47;97559.84;;;0.86;63.22
3150;BME280;32503;47.748;8.960;2023-01-30T05:36:18;97548.44;;;0.81;62.90
3150;BME280;32503;47.748;8.960;2023-01-30T05:38:45;97585.38;;;0.98;63.11
3150;BME280;32503;47.748;8.960;2023-01-30T05:41:14;97568.41;;;0.83;62.94
3150;BME280;32503;47.748;8.960;2023-01-30T05:43:41;97582.50;;;0.89;63.11
3150;BME280;32503;47.748;8.960;2023-01-30T05:46:11;97576.09;;;0.90;62.91
3150;BME280;32503;47.748;8.960;2023-01-30T05:48:38;97589.38;;;0.95;63.37
3150;BME280;32503;47.748;8.960;2023-01-30T05:51:06;97601.34;;;1.03;63.29
3150;BME280;32503;47.748;8.960;2023-01-30T05:53:34;97605.28;;;1.10;62.82
3150;BME280;32503;47.748;8.960;2023-01-30T05:56:04;97579.81;;;0.94;62.96
3150;BME280;32503;47.748;8.960;2023-01-30T05:58:32;97596.25;;;1.11;62.92
3150;BME280;32503;47.748;8.960;2023-01-30T06:01:00;97585.63;;;1.01;62.46
3150;BME280;32503;47.748;8.960;2023-01-30T06:03:27;97590.91;;;1.11;62.59
3150;BME280;32503;47.748;8.960;2023-01-30T06:05:54;97566.38;;;1.14;62.38
3150;BME280;32503;47.748;8.960;2023-01-30T06:08:22;97578.06;;;1.24;62.06
3150;BME280;32503;47.748;8.960;2023-01-30T06:10:50;97569.84;;;1.15;62.24
3150;BME280;32503;47.748;8.960;2023-01-30T06:13:17;97559.97;;;1.16;62.07
3150;BME280;32503;47.748;8.960;2023-01-30T06:15:45;97539.84;;;0.99;61.76
3150;BME280;32503;47.748;8.960;2023-01-30T06:18:12;97571.63;;;1.25;61.61
3150;BME280;32503;47.748;8.960;2023-01-30T06:20:39;97557.81;;;1.23;61.45
3150;BME280;32503;47.748;8.960;2023-01-30T06:23:06;97554.16;;;1.08;61.45
3150;BME280;32503;47.748;8.960;2023-01-30T06:25:33;97538.72;;;1.10;61.53
3150;BME280;32503;47.748;8.960;2023-01-30T06:28:01;97532.31;;;1.11;61.52
3150;BME280;32503;47.748;8.960;2023-01-30T06:30:28;97539.81;;;1.04;61.32
3150;BME280;32503;47.748;8.960;2023-01-30T06:32:55;97569.13;;;0.99;61.53
3150;BME280;32503;47.748;8.960;2023-01-30T06:35:22;97586.19;;;0.98;61.54
3150;BME280;32503;47.748;8.960;2023-01-30T06:37:49;97586.19;;;0.93;61.42
3150;BME280;32503;47.748;8.960;2023-01-30T06:40:17;97591.28;;;0.89;61.27
3150;BME280;32503;47.748;8.960;2023-01-30T06:42:44;97597.69;;;0.88;62.03
3150;BME280;32503;47.748;8.960;2023-01-30T06:45:15;97606.75;;;0.82;61.75
3150;BME280;32503;47.748;8.960;2023-01-30T06:47:46;97611.25;;;0.87;61.83
3150;BME280;32503;47.748;8.960;2023-01-30T06:50:15;97622.44;;;0.84;61.94
3150;BME280;32503;47.748;8.960;2023-01-30T06:52:44;97622.47;;;0.73;61.79
3150;BME280;32503;47.748;8.960;2023-01-30T06:55:13;97586.34;;;0.57;62.10
3150;BME280;32503;47.748;8.960;2023-01-30T06:57:42;97602.53;;;0.71;62.07
3150;BME280;32503;47.748;8.960;2023-01-30T07:00:13;97610.75;;;0.80;62.02
3150;BME280;32503;47.748;8.960;2023-01-30T07:02:41;97627.78;;;0.84;61.86
3150;BME280;32503;47.748;8.960;2023-01-30T07:05:09;97635.25;;;0.82;62.44
3150;BME280;32503;47.748;8.960;2023-01-30T07:07:37;97629.63;;;0.88;61.78
3150;BME280;32503;47.748;8.960;2023-01-30T07:10:06;97645.88;;;0.87;61.65
3150;BME280;32503;47.748;8.960;2023-01-30T07:12:33;97650.09;;;0.93;61.63
3150;BME280;32503;47.748;8.960;2023-01-30T07:15:00;97641.84;;;0.94;61.87
3150;BME280;32503;47.748;8.960;2023-01-30T07:17:29;97638.88;;;1.01;61.48
3150;BME280;32503;47.748;8.960;2023-01-30T07:19:56;97638.88;;;1.01;61.08
3150;BME280;32503;47.748;8.960;2023-01-30T07:22:23;97640.88;;;1.75;69.30
3150;BME280;32503;47.748;8.960;2023-01-30T07:24:50;97625.13;;;1.78;65.51
3150;BME280;32503;47.748;8.960;2023-01-30T07:27:17;97642.88;;;1.93;63.53
3150;BME280;32503;47.748;8.960;2023-01-30T07:29:44;97646.69;;;2.16;61.82
3150;BME280;32503;47.748;8.960;2023-01-30T07:32:15;97635.19;;;2.98;59.66
3150;BME280;32503;47.748;8.960;2023-01-30T07:34:44;97633.94;;;3.91;56.48
3150;BME280;32503;47.748;8.960;2023-01-30T07:37:11;97640.16;;;4.66;53.32
3150;BME280;32503;47.748;8.960;2023-01-30T07:39:39;97641.47;;;4.82;51.51
3150;BME280;32503;47.748;8.960;2023-01-30T07:42:06;97628.97;;;4.91;50.02
3150;BME280;32503;47.748;8.960;2023-01-30T07:44:33;97619.44;;;4.71;49.98
3150;BME280;32503;47.748;8.960;2023-01-30T07:47:00;97612.88;;;4.91;49.86
3150;BME280;32503;47.748;8.960;2023-01-30T07:49:27;97602.38;;;6.04;47.95
3150;BME280;32503;47.748;8.960;2023-01-30T07:51:56;97588.66;;;7.44;44.30
3150;BME280;32503;47.748;8.960;2023-01-30T07:54:23;97590.91;;;8.50;42.80
3150;BME280;32503;47.748;8.960;2023-01-30T07:56:51;97542.13;;;9.02;40.23
3150;BME280;32503;47.748;8.960;2023-01-30T07:59:18;97585.22;;;10.29;39.53
3150;BME280;32503;47.748;8.960;2023-01-30T08:01:45;97585.13;;;11.48;36.94
3150;BME280;32503;47.748;8.960;2023-01-30T08:04:12;97600.91;;;11.99;35.28
3150;BME280;32503;47.748;8.960;2023-01-30T08:06:39;97589.81;;;12.80;33.76
3150;BME280;32503;47.748;8.960;2023-01-30T08:09:08;97623.63;;;13.66;32.18
3150;BME280;32503;47.748;8.960;2023-01-30T08:11:38;97630.31;;;14.31;31.09
3150;BME280;32503;47.748;8.960;2023-01-30T08:14:05;97622.28;;;14.81;30.88
3150;BME280;32503;47.748;8.960;2023-01-30T08:16:32;97624.00;;;15.96;29.41
3150;BME280;32503;47.748;8.960;2023-01-30T08:18:59;97626.19;;;15.86;27.37
3150;BME280;32503;47.748;8.960;2023-01-30T08:21:26;97628.31;;;16.00;28.38
3150;BME280;32503;47.748;8.960;2023-01-30T08:23:53;97628.91;;;15.86;28.55
3150;BME280;32503;47.748;8.960;2023-01-30T08:26:21;97619.22;;;14.39;29.19
3150;BME280;32503;47.748;8.960;2023-01-30T08:28:48;97627.53;;;13.17;31.16
3150;BME280;32503;47.748;8.960;2023-01-30T08:31:16;97626.88;;;12.88;31.75
3150;BME280;32503;47.748;8.960;2023-01-30T08:33:43;97621.16;;;11.36;32.83
3150;BME280;32503;47.748;8.960;2023-01-30T08:36:10;97584.16;;;10.54;34.87
3150;BME280;32503;47.748;8.960;2023-01-30T08:38:37;97630.19;;;11.16;34.91
3150;BME280;32503;47.748;8.960;2023-01-30T08:41:05;97637.25;;;11.45;34.61
3150;BME280;32503;47.748;8.960;2023-01-30T08:43:35;97619.13;;;10.96;34.03
3150;BME280;32503;47.748;8.960;2023-01-30T08:46:03;97608.84;;;10.65;35.91
3150;BME280;32503;47.748;8.960;2023-01-30T08:48:30;97607.00;;;10.44;35.63
3150;BME280;32503;47.748;8.960;2023-01-30T08:50:57;97612.09;;;10.46;36.60
3150;BME280;32503;47.748;8.960;2023-01-30T08:53:24;97623.31;;;10.36;35.90
3150;BME280;32503;47.748;8.960;2023-01-30T08:55:52;97599.66;;;9.36;36.81
3150;BME280;32503;47.748;8.960;2023-01-30T08:58:19;97633.28;;;9.39;37.84
3150;BME280;32503;47.748;8.960;2023-01-30T09:00:48;97646.94;;;8.83;39.22
3150;BME280;32503;47.748;8.960;2023-01-30T09:03:16;97657.84;;;8.86;39.41
3150;BME280;32503;47.748;8.960;2023-01-30T09:05:43;97663.09;;;8.83;39.90
3150;BME280;32503;47.748;8.960;2023-01-30T09:08:10;97673.47;;;8.63;40.29
3150;BME280;32503;47.748;8.960;2023-01-30T09:10:37;97664.66;;;8.84;40.44
3150;BME280;32503;47.748;8.960;2023-01-30T09:13:07;97657.28;;;8.72;40.18
3150;BME280;32503;47.748;8.960;2023-01-30T09:15:34;97636.44;;;8.16;41.15
3150;BME280;32503;47.748;8.960;2023-01-30T09:18:03;97651.97;;;8.11;41.46
3150;BME280;32503;47.748;8.960;2023-01-30T09:20:30;97649.75;;;7.69;42.18
3150;BME280;32503;47.748;8.960;2023-01-30T09:22:58;97653.97;;;7.27;42.79
3150;BME280;32503;47.748;8.960;2023-01-30T09:25:25;97651.56;;;7.08;43.72
3150;BME280;32503;47.748;8.960;2023-01-30T09:27:52;97674.38;;;6.88;44.38
3150;BME280;32503;47.748;8.960;2023-01-30T09:30:20;97696.34;;;6.50;45.56
3150;BME280;32503;47.748;8.960;2023-01-30T09:32:47;97693.47;;;6.23;45.87
3150;BME280;32503;47.748;8.960;2023-01-30T09:35:15;97695.19;;;5.83;46.68
3150;BME280;32503;47.748;8.960;2023-01-30T09:37:49;97680.03;;;5.87;46.93
3150;BME280;32503;47.748;8.960;2023-01-30T09:40:21;97668.28;;;6.11;48.31
3150;BME280;32503;47.748;8.960;2023-01-30T09:43:09;97659.16;;;6.43;47.73
3150;BME280;32503;47.748;8.960;2023-01-30T09:46:00;97652.97;;;6.74;46.02
3150;BME280;32503;47.748;8.960;2023-01-30T09:48:35;97658.59;;;6.95;45.81
3150;BME280;32503;47.748;8.960;2023-01-30T09:51:39;97649.03;;;7.11;44.82
3150;BME280;32503;47.748;8.960;2023-01-30T09:54:19;97648.63;;;7.44;45.08
3150;BME280;32503;47.748;8.960;2023-01-30T09:57:10;97642.81;;;7.86;44.31
3150;BME280;32503;47.748;8.960;2023-01-30T09:59:50;97643.56;;;8.30;44.03
3150;BME280;32503;47.748;8.960;2023-01-30T10:02:43;97648.78;;;8.52;43.09
3150;BME280;32503;47.748;8.960;2023-01-30T10:05:13;97644.47;;;8.51;42.90
3150;BME280;32503;47.748;8.960;2023-01-30T10:08:02;97636.13;;;8.83;42.78
3150;BME280;32503;47.748;8.960;2023-01-30T10:10:45;97642.22;;;8.62;42.22
3150;BME280;32503;47.748;8.960;2023-01-30T10:13:29;97633.59;;;7.78;43.10
3150;BME280;32503;47.748;8.960;2023-01-30T10:16:07;97652.09;;;7.36;44.32
3150;BME280;32503;47.748;8.960;2023-01-30T10:18:59;97643.47;;;6.99;45.19
3150;BME280;32503;47.748;8.960;2023-01-30T10:21:41;97644.81;;;6.88;45.29
3150;BME280;32503;47.748;8.960;2023-01-30T10:24:42;97646.94;;;6.68;46.95
3150;BME280;32503;47.748;8.960;2023-01-30T10:27:14;97649.56;;;6.82;45.80
3150;BME280;32503;47.748;8.960;2023-01-30T10:29:45;97648.00;;;6.90;46.37
3150;BME280;32503;47.748;8.960;2023-01-30T10:32:18;97639.97;;;7.07;45.98
3150;BME280;32503;47.748;8.960;2023-01-30T10:34:48;97632.09;;;7.11;45.76
3150;BME280;32503;47.748;8.960;2023-01-30T10:37:23;97650.25;;;7.63;45.74
3150;BME280;32503;47.748;8.960;2023-01-30T10:40:01;97619.50;;;7.81;44.39
3150;BME280;32503;47.748;8.960;2023-01-30T10:42:35;97625.69;;;7.82;44.17
3150;BME280;32503;47.748;8.960;2023-01-30T10:45:11;97595.91;;;7.69;42.98
3150;BME280;32503;47.748;8.960;2023-01-30T10:47:52;97583.59;;;7.77;43.28
3150;BME280;32503;47.748;8.960;2023-01-30T10:50:28;97562.69;;;7.48;43.33
3150;BME280;32503;47.748;8.960;2023-01-30T10:53:04;97570.75;;;7.56;44.14
3150;BME280;32503;47.748;8.960;2023-01-30T10:55:39;97569.81;;;7.52;43.29
3150;BME280;32503;47.748;8.960;2023-01-30T10:58:16;97568.38;;;7.20;43.24
3150;BME280;32503;47.748;8.960;2023-01-30T11:00:54;97573.56;;;6.99;43.96
3150;BME280;32503;47.748;8.960;2023-01-30T11:03:32;97574.25;;;7.48;44.60
3150;BME280;32503;47.748;8.960;2023-01-30T11:06:06;97569.66;;;7.40;43.17
3150;BME280;32503;47.748;8.960;2023-01-30T11:08:35;97566.81;;;7.54;43.96
3150;BME280;32503;47.748;8.960;2023-01-30T11:11:26;97545.28;;;7.19;43.96
3150;BME280;32503;47.748;8.960;2023-01-30T11:14:02;97529.91;;;7.02;44.44
3150;BME280;32503;47.748;8.960;2023-01-30T11:16:30;97552.97;;;6.86;44.41
3150;BME280;32503;47.748;8.960;2023-01-30T11:19:03;97544.22;;;6.71;44.80
3150;BME280;32503;47.748;8.960;2023-01-30T11:21:31;97541.88;;;6.78;45.39
3150;BME280;32503;47.748;8.960;2023-01-30T11:24:04;97547.25;;;6.78;45.01
3150;BME280;32503;47.748;8.960;2023-01-30T11:26:38;97555.94;;;6.84;45.23
3150;BME280;32503;47.748;8.960;2023-01-30T11:29:24;97549.34;;;6.90;44.73
3150;BME280;32503;47.748;8.960;2023-01-30T11:31:52;97515.16;;;6.73;45.36
3150;BME280;32503;47.748;8.960;2023-01-30T11:34:22;97532.09;;;6.91;44.69
3150;BME280;32503;47.748;8.960;2023-01-30T11:36:50;97516.53;;;6.53;45.69
3150;BME280;32503;47.748;8.960;2023-01-30T11:39:21;97504.97;;;6.53;45.90
3150;BME280;32503;47.748;8.960;2023-01-30T11:42:01;97509.13;;;6.19;46.78
3150;BME280;32503;47.748;8.960;2023-01-30T11:44:33;97503.91;;;6.22;46.93
3150;BME280;32503;47.748;8.960;2023-01-30T11:47:03;97496.16;;;6.21;54.81
3150;BME280;32503;47.748;8.960;2023-01-30T11:49:36;97495.88;;;6.80;50.52
3150;BME280;32503;47.748;8.960;2023-01-30T11:52:04;97503.97;;;6.89;46.43
3150;BME280;32503;47.748;8.960;2023-01-30T11:54:34;97504.31;;;7.48;59.27
3150;BME280;32503;47.748;8.960;2023-01-30T11:57:09;97516.78;;;8.26;58.26
3150;BME280;32503;47.748;8.960;2023-01-30T11:59:43;97495.47;;;8.04;45.01
3150;BME280;32503;47.748;8.960;2023-01-30T12:02:17;97518.31;;;8.36;47.39
3150;BME280;32503;47.748;8.960;2023-01-30T12:04:49;97511.94;;;8.02;43.87
3150;BME280;32503;47.748;8.960;2023-01-30T12:07:22;97507.88;;;7.87;44.38
3150;BME280;32503;47.748;8.960;2023-01-30T12:09:51;97501.72;;;7.60;43.81
3150;BME280;32503;47.748;8.960;2023-01-30T12:12:32;97512.19;;;7.53;44.13
3150;BME280;32503;47.748;8.960;2023-01-30T12:15:13;97509.03;;;7.25;45.13
3150;BME280;32503;47.748;8.960;2023-01-30T12:17:51;97511.53;;;7.04;45.61
3150;BME280;32503;47.748;8.960;2023-01-30T12:20:40;97435.44;;;6.42;45.84
3150;BME280;32503;47.748;8.960;2023-01-30T12:23:17;97470.53;;;6.46;45.96
3150;BME280;32503;47.748;8.960;2023-01-30T12:25:57;97510.78;;;6.37;47.60
3150;BME280;32503;47.748;8.960;2023-01-30T12:28:34;97495.28;;;6.34;47.12
3150;BME280;32503;47.748;8.960;2023-01-30T12:31:10;97484.50;;;6.25;47.75
3150;BME280;32503;47.748;8.960;2023-01-30T12:33:39;97484.13;;;6.10;48.00
3150;BME280;32503;47.748;8.960;2023-01-30T12:36:18;97481.44;;;6.10;48.68
3150;BME280;32503;47.748;8.960;2023-01-30T12:39:01;97479.19;;;6.03;48.67
3150;BME280;32503;47.748;8.960;2023-01-30T12:41:47;97476.56;;;5.89;48.76
3150;BME280;32503;47.748;8.960;2023-01-30T12:44:50;97482.41;;;5.91;49.42
3150;BME280;32503;47.748;8.960;2023-01-30T12:47:43;97487.06;;;5.99;49.32
3150;BME280;32503;47.748;8.960;2023-01-30T12:50:27;97430.81;;;5.54;49.00
3150;BME280;32503;47.748;8.960;2023-01-30T12:53:25;97468.44;;;5.72;49.54
3150;BME280;32503;47.748;8.960;2023-01-30T12:59:07;97444.41;;;5.66;49.65
3150;BME280;32503;47.748;8.960;2023-01-30T13:01:49;97439.69;;;5.63;49.87
3150;BME280;32503;47.748;8.960;2023-01-30T13:04:27;97451.38;;;5.67;50.20
3150;BME280;32503;47.748;8.960;2023-01-30T13:07:10;97463.91;;;5.81;50.04
3150;BME280;32503;47.748;8.960;2023-01-30T13:09:58;97441.16;;;5.47;50.30
3150;BME280;32503;47.748;8.960;2023-01-30T13:12:36;97439.44;;;5.51;50.66
3150;BME280;32503;47.748;8.960;2023-01-30T13:15:18;97447.94;;;5.76;50.06
3150;BME280;32503;47.748;8.960;2023-01-30T13:18:06;97439.03;;;5.66;50.43
3150;BME280;32503;47.748;8.960;2023-01-30T13:20:55;97446.09;;;5.85;50.06
3150;BME280;32503;47.748;8.960;2023-01-30T13:23:35;97449.88;;;5.84;50.06
3150;BME280;32503;47.748;8.960;2023-01-30T13:26:07;97448.00;;;5.84;49.80
3150;BME280;32503;47.748;8.960;2023-01-30T13:28:39;97446.88;;;5.85;50.06
3150;BME280;32503;47.748;8.960;2023-01-30T13:31:12;97418.56;;;5.70;50.38
3150;BME280;32503;47.748;8.960;2023-01-30T13:33:44;97425.25;;;5.82;50.16
3150;BME280;32503;47.748;8.960;2023-01-30T13:36:16;97420.13;;;5.72;50.19
3150;BME280;32503;47.748;8.960;2023-01-30T13:38:57;97448.03;;;5.93;50.14
3150;BME280;32503;47.748;8.960;2023-01-30T13:41:30;97455.47;;;5.96;50.75
3150;BME280;32503;47.748;8.960;2023-01-30T13:44:00;97422.69;;;5.77;50.82
3150;BME280;32503;47.748;8.960;2023-01-30T13:46:31;97432.72;;;5.94;50.84
3150;BME280;32503;47.748;8.960;2023-01-30T13:49:07;97439.47;;;5.91;50.99
3150;BME280;32503;47.748;8.960;2023-01-30T13:51:46;97424.34;;;5.95;50.81
3150;BME280;32503;47.748;8.960;2023-01-30T13:54:45;97397.09;;;5.70;51.25
3150;BME280;32503;47.748;8.960;2023-01-30T13:57:27;97448.16;;;5.88;51.41